createdAt,value
2023-05-20T08:05:12.380Z,2.70
2023-05-20T08:06:12.291Z,2.50
2023-05-20T08:08:05.121Z,3.10
2023-05-20T18:38:43.996Z,8.00
2023-05-20T18:39:31.716Z,8.10
2023-05-20T18:40:31.653Z,8.40
2023-05-20T18:42:29.438Z,8.20
2023-05-20T18:43:29.367Z,8.10
2023-05-20T18:45:27.845Z,8.00
2023-05-20T18:46:27.735Z,7.80
2023-05-20T18:47:27.662Z,9.40
2023-05-20T18:48:27.631Z,9.10
2023-05-20T18:49:27.533Z,8.60
2023-05-20T18:50:27.491Z,8.70
2023-05-20T18:51:27.423Z,8.40
2023-05-20T18:52:27.349Z,8.90
2023-05-20T18:53:27.287Z,8.40
2023-05-20T18:54:27.269Z,8.70
2023-05-20T18:55:27.203Z,8.10
2023-05-20T18:56:27.107Z,8.20
2023-05-20T18:57:27.053Z,8.30
2023-05-20T18:58:27.041Z,8.30
2023-05-20T18:59:26.957Z,9.20
2023-05-20T19:00:26.868Z,9.40
2023-05-20T19:01:26.863Z,9.00
2023-05-20T19:02:26.760Z,8.20
2023-05-20T19:03:26.719Z,8.40
2023-05-20T19:04:26.621Z,8.00
2023-05-20T19:05:26.624Z,8.60
2023-05-20T19:06:26.496Z,8.50
2023-05-20T19:07:26.437Z,9.00
2023-05-20T19:08:26.378Z,8.70
2023-05-20T19:09:26.313Z,8.60
2023-05-20T19:10:26.940Z,8.40
2023-05-20T19:11:26.201Z,7.80
2023-05-20T19:12:26.151Z,8.20
2023-05-20T19:13:26.175Z,8.80
2023-05-20T19:14:26.035Z,8.40
2023-05-20T19:15:25.954Z,8.60
2023-05-20T19:16:25.902Z,8.20
2023-05-20T19:17:25.844Z,8.10
2023-05-20T19:18:25.758Z,8.70
2023-05-20T19:19:25.816Z,8.40
2023-05-20T19:20:25.648Z,8.20
2023-05-20T19:21:25.576Z,8.70
2023-05-20T19:22:25.519Z,7.70
2023-05-20T19:23:25.442Z,7.70
2023-05-20T19:24:25.413Z,8.70
2023-05-20T19:25:25.322Z,8.00
2023-05-20T19:26:25.264Z,8.10
2023-05-20T19:27:25.214Z,7.30
2023-05-20T19:28:25.179Z,7.30
2023-05-20T19:29:25.122Z,7.50
2023-05-20T19:30:25.052Z,8.00
2023-05-20T19:31:24.980Z,8.40
2023-05-20T19:32:24.937Z,7.40
2023-05-20T19:33:24.830Z,7.60
2023-05-20T19:34:24.788Z,7.70
2023-05-20T19:35:24.720Z,7.30
2023-05-20T19:36:24.675Z,7.40
2023-05-20T19:37:24.588Z,7.20
2023-05-20T19:38:24.540Z,7.40
2023-05-20T19:39:24.511Z,7.10
2023-05-20T19:40:24.414Z,7.30
2023-05-20T19:41:24.387Z,7.40
2023-05-20T19:42:24.308Z,7.20
2023-05-20T19:43:24.215Z,7.00
2023-05-20T19:44:24.164Z,7.30
2023-05-20T19:45:24.090Z,7.50
2023-05-20T19:46:24.125Z,6.80
2023-05-20T19:47:24.001Z,8.30
2023-05-20T19:48:23.919Z,7.20
2023-05-20T19:49:23.860Z,7.30
2023-05-20T19:50:23.790Z,7.20
2023-05-20T19:51:23.759Z,7.20
2023-05-20T19:52:23.677Z,7.40
2023-05-20T19:53:23.602Z,7.00
2023-05-20T19:54:23.549Z,7.10
2023-05-20T19:55:23.478Z,7.90
2023-05-20T19:56:23.442Z,7.30
2023-05-20T19:57:23.374Z,8.10
2023-05-20T19:58:23.314Z,7.40
2023-05-20T19:59:23.225Z,7.20
2023-05-20T20:00:23.186Z,7.40
2023-05-20T20:01:23.110Z,7.20
2023-05-20T20:02:23.059Z,7.80
2023-05-20T20:03:22.988Z,7.80
2023-05-20T20:04:22.965Z,7.50
2023-05-20T20:05:23.961Z,7.30
2023-05-20T20:06:22.815Z,7.30
2023-05-20T20:07:22.735Z,6.90
2023-05-20T20:08:22.670Z,7.80
2023-05-20T20:09:22.632Z,7.20
2023-05-20T20:10:22.568Z,7.00
2023-05-20T20:11:22.509Z,7.80
2023-05-20T20:12:22.436Z,7.50
2023-05-20T20:13:22.378Z,8.30
2023-05-20T20:14:22.300Z,7.60
2023-05-20T20:15:22.242Z,7.80
2023-05-20T20:16:22.212Z,7.60
2023-05-20T20:17:23.164Z,7.30
2023-05-20T20:18:22.065Z,7.70
2023-05-20T20:19:22.069Z,8.00
2023-05-20T20:20:21.936Z,8.10
2023-05-20T20:21:21.891Z,8.20
2023-05-20T20:22:21.865Z,8.10
2023-05-20T20:23:21.766Z,7.10
2023-05-20T20:24:21.692Z,7.80
2023-05-20T20:25:21.628Z,7.20
2023-05-20T20:26:21.573Z,8.20
2023-05-20T20:27:21.520Z,8.00
2023-05-20T20:28:21.461Z,7.80
2023-05-20T20:29:21.362Z,7.50
2023-05-20T20:30:21.328Z,7.00
2023-05-20T20:31:21.283Z,7.50
2023-05-20T20:32:21.227Z,7.50
2023-05-20T20:33:21.211Z,7.20
2023-05-20T20:34:21.070Z,7.60
2023-05-20T20:35:21.039Z,7.00
2023-05-20T20:36:20.938Z,7.60
2023-05-20T20:37:20.877Z,7.10
2023-05-20T20:38:20.873Z,7.40
2023-05-20T20:39:20.761Z,6.70
2023-05-20T20:40:20.697Z,7.80
2023-05-20T20:41:20.631Z,7.40
2023-05-20T20:42:20.604Z,7.30
2023-05-20T20:43:21.407Z,7.00
2023-05-20T20:44:20.468Z,7.40
2023-05-20T20:45:20.376Z,6.90
2023-05-20T20:46:20.376Z,7.20
2023-05-20T20:47:20.400Z,7.00
2023-05-20T20:48:20.272Z,6.80
2023-05-20T20:49:20.140Z,7.00
2023-05-20T20:50:20.096Z,7.20
2023-05-20T20:51:20.028Z,7.00
2023-05-20T20:52:19.949Z,6.90
2023-05-20T20:53:19.884Z,6.90
2023-05-20T20:54:19.819Z,7.30
2023-05-20T20:55:19.771Z,6.90
2023-05-20T20:56:19.700Z,7.00
2023-05-20T20:57:19.639Z,7.10
2023-05-20T20:58:19.579Z,6.90
2023-05-20T20:59:19.533Z,7.20
2023-05-20T21:00:19.440Z,7.20
2023-05-20T21:01:19.404Z,7.30
2023-05-20T21:02:19.337Z,7.30
2023-05-20T21:03:19.281Z,6.80
2023-05-20T21:04:19.267Z,7.20
2023-05-20T21:05:19.168Z,7.00
2023-05-20T21:06:19.076Z,7.30
2023-05-20T21:07:19.005Z,7.70
2023-05-20T21:08:18.959Z,8.30
2023-05-20T21:09:18.889Z,7.10
2023-05-20T21:10:18.850Z,7.10
2023-05-20T21:11:18.763Z,7.20
2023-05-20T21:12:18.708Z,7.20
2023-05-20T21:13:18.671Z,7.30
2023-05-20T21:14:18.624Z,7.60
2023-05-20T21:15:18.542Z,7.50
2023-05-20T21:16:18.476Z,7.10
2023-05-20T21:17:18.418Z,7.90
2023-05-20T21:18:18.338Z,7.00
2023-05-20T21:19:18.305Z,7.30
2023-05-20T21:20:20.877Z,7.60
2023-05-20T21:21:18.164Z,7.40
2023-05-20T21:22:18.072Z,7.90
2023-05-20T21:23:18.043Z,7.60
2023-05-20T21:24:17.953Z,6.80
2023-05-20T21:25:17.885Z,7.40
2023-05-20T21:26:17.819Z,8.30
2023-05-20T21:27:17.761Z,8.20
2023-05-20T21:28:17.729Z,8.00
2023-05-20T21:29:17.656Z,7.90
2023-05-20T21:30:17.579Z,8.00
2023-05-20T21:31:17.544Z,7.10
2023-05-20T21:32:17.459Z,7.60
2023-05-20T21:33:17.390Z,7.80
2023-05-20T21:34:17.322Z,7.60
2023-05-20T21:35:17.260Z,7.40
2023-05-20T21:36:17.194Z,7.90
2023-05-20T21:37:17.140Z,8.00
2023-05-20T21:38:17.073Z,7.40
2023-05-20T21:39:17.008Z,8.10
2023-05-20T21:40:16.968Z,7.50
2023-05-20T21:41:16.905Z,7.40
2023-05-20T21:42:16.830Z,7.50
2023-05-20T21:43:16.763Z,7.20
2023-05-20T21:44:16.697Z,7.80
2023-05-20T21:45:16.638Z,7.10
2023-05-20T21:46:16.636Z,7.60
2023-05-20T21:47:16.539Z,7.60
2023-05-20T21:48:16.448Z,8.20
2023-05-20T21:49:16.404Z,7.70
2023-05-20T21:50:16.364Z,7.50
2023-05-20T21:51:16.276Z,8.00
2023-05-20T21:52:16.216Z,7.70
2023-05-20T21:53:16.154Z,7.20
2023-05-20T21:54:16.091Z,7.80
2023-05-20T21:55:16.021Z,7.50
2023-05-20T21:56:15.967Z,7.70
2023-05-20T21:57:15.925Z,7.60
2023-05-20T21:58:15.821Z,7.80
2023-05-20T21:59:15.771Z,7.70
2023-05-20T22:00:15.725Z,8.70
2023-05-20T22:01:15.682Z,8.30
2023-05-20T22:02:15.593Z,8.40
2023-05-20T22:03:15.598Z,8.00
2023-05-20T22:04:15.502Z,8.10
2023-05-20T22:05:15.407Z,8.30
2023-05-20T22:06:15.334Z,8.40
2023-05-20T22:07:15.265Z,8.60
2023-05-20T22:08:15.254Z,8.20
2023-05-20T22:09:15.148Z,8.40
2023-05-20T22:10:15.089Z,8.40
2023-05-20T22:11:15.019Z,8.30
2023-05-20T22:12:14.949Z,8.10
2023-05-20T22:13:14.902Z,8.10
2023-05-20T22:14:14.836Z,8.30
2023-05-20T22:15:14.786Z,8.50
2023-05-20T22:16:14.804Z,8.40
2023-05-20T22:17:14.815Z,8.70
2023-05-20T22:18:14.654Z,8.30
2023-05-20T22:19:14.598Z,8.70
2023-05-20T22:20:14.598Z,8.60
2023-05-20T22:21:14.529Z,9.00
2023-05-20T22:22:14.482Z,8.90
2023-05-20T22:23:14.307Z,8.80
2023-05-20T22:24:14.222Z,8.20
2023-05-20T22:25:14.160Z,9.00
2023-05-20T22:26:14.086Z,9.50
2023-05-20T22:27:14.047Z,9.50
2023-05-20T22:28:13.972Z,9.00
2023-05-20T22:29:13.887Z,9.20
2023-05-20T22:30:13.834Z,9.50
2023-05-20T22:31:13.828Z,9.50
2023-05-20T22:32:13.755Z,9.30
2023-05-20T22:33:13.659Z,9.50
2023-05-20T22:34:13.614Z,9.00
2023-05-20T22:35:13.528Z,9.60
2023-05-20T22:36:13.458Z,9.90
2023-05-20T22:37:13.412Z,9.80
2023-05-20T22:38:13.375Z,9.50
2023-05-20T22:39:13.318Z,10.70
2023-05-20T22:40:13.200Z,10.10
2023-05-20T22:41:13.168Z,9.70
2023-05-20T22:42:13.088Z,9.80
2023-05-20T22:43:13.052Z,9.10
2023-05-20T22:44:12.959Z,9.80
2023-05-20T22:45:12.898Z,9.60
2023-05-20T22:46:12.865Z,9.70
2023-05-20T22:47:12.776Z,10.30
2023-05-20T22:48:12.716Z,10.20
2023-05-20T22:49:12.660Z,10.00
2023-05-20T22:50:12.585Z,10.40
2023-05-20T22:51:12.528Z,9.90
2023-05-20T22:52:12.479Z,10.50
2023-05-20T22:53:12.414Z,10.90
2023-05-20T22:54:12.357Z,10.50
2023-05-20T22:55:12.321Z,10.60
2023-05-20T22:56:12.208Z,11.10
2023-05-20T22:57:12.191Z,10.50
2023-05-20T22:58:12.084Z,11.10
2023-05-20T22:59:12.040Z,11.10
2023-05-20T23:00:11.956Z,11.10
2023-05-20T23:01:11.953Z,11.50
2023-05-20T23:02:11.862Z,11.20
2023-05-20T23:03:11.828Z,10.80
2023-05-20T23:04:11.757Z,10.90
2023-05-20T23:05:11.648Z,11.10
2023-05-20T23:06:11.599Z,11.50
2023-05-20T23:07:11.525Z,11.30
2023-05-20T23:08:11.466Z,11.20
2023-05-20T23:09:11.421Z,11.60
2023-05-20T23:10:11.359Z,10.90
2023-05-20T23:11:11.296Z,11.40
2023-05-20T23:12:11.217Z,12.40
2023-05-20T23:13:11.150Z,11.50
2023-05-20T23:14:11.082Z,11.50
2023-05-20T23:15:11.020Z,12.30
2023-05-20T23:16:11.015Z,12.00
2023-05-20T23:17:10.963Z,12.30
2023-05-20T23:18:10.911Z,11.60
2023-05-20T23:19:10.853Z,11.80
2023-05-20T23:20:10.716Z,12.50
2023-05-20T23:21:10.666Z,12.90
2023-05-20T23:22:10.589Z,12.90
2023-05-20T23:23:11.522Z,12.70
2023-05-20T23:24:10.473Z,12.50
2023-05-20T23:25:10.488Z,12.20
2023-05-20T23:26:10.370Z,12.80
2023-05-20T23:27:10.298Z,12.80
2023-05-20T23:28:10.268Z,13.10
2023-05-20T23:29:10.208Z,13.60
2023-05-20T23:30:10.079Z,12.70
2023-05-20T23:31:10.037Z,12.60
2023-05-20T23:32:09.965Z,12.70
2023-05-20T23:33:10.027Z,12.80
2023-05-20T23:34:09.899Z,13.00
2023-05-20T23:35:09.787Z,13.20
2023-05-20T23:36:09.746Z,13.20
2023-05-20T23:37:09.646Z,13.20
2023-05-20T23:38:09.599Z,13.60
2023-05-20T23:39:09.525Z,13.80
2023-05-20T23:40:09.465Z,13.20
2023-05-20T23:41:09.436Z,13.20
2023-05-20T23:42:09.340Z,13.80
2023-05-20T23:43:09.273Z,13.40
2023-05-20T23:44:09.206Z,13.80
2023-05-20T23:45:09.145Z,13.40
2023-05-20T23:46:09.139Z,13.70
2023-05-20T23:47:09.036Z,13.70
2023-05-20T23:48:08.954Z,14.10
2023-05-20T23:49:08.893Z,14.00
2023-05-20T23:50:08.833Z,13.70
2023-05-20T23:51:08.772Z,14.30
2023-05-20T23:52:08.692Z,13.00
2023-05-20T23:53:08.648Z,13.40
2023-05-20T23:54:08.573Z,13.70
2023-05-20T23:55:08.529Z,14.20
2023-05-20T23:56:08.460Z,13.60
2023-05-20T23:57:08.385Z,13.60
2023-05-20T23:58:08.330Z,12.80
2023-05-20T23:59:08.263Z,13.00
